sensor_id;sensor_type;location;lat;lon;timestamp;temperature;humidity
1391;DHT22;690;51.454;7.194;2024-02-14T00:02:18;6.90;1.00
1391;DHT22;690;51.454;7.194;2024-02-14T00:04:45;6.80;1.00
1391;DHT22;690;51.454;7.194;2024-02-14T00:07:12;6.80;1.00
1391;DHT22;690;51.454;7.194;2024-02-14T00:09:40;6.90;1.00
1391;DHT22;690;51.454;7.194;2024-02-14T00:12:07;6.90;1.00
1391;DHT22;690;51.454;7.194;2024-02-14T00:14:35;6.90;1.00
1391;DHT22;690;51.454;7.194;2024-02-14T00:17:03;6.90;1.00
1391;DHT22;690;51.454;7.194;2024-02-14T00:19:30;6.90;1.00
1391;DHT22;690;51.454;7.194;2024-02-14T00:21:57;6.90;1.00
1391;DHT22;690;51.454;7.194;2024-02-14T00:24:24;6.90;1.00
1391;DHT22;690;51.454;7.194;2024-02-14T00:26:53;6.90;1.00
1391;DHT22;690;51.454;7.194;2024-02-14T00:29:21;6.90;1.00
1391;DHT22;690;51.454;7.194;2024-02-14T00:31:49;6.90;1.00
1391;DHT22;690;51.454;7.194;2024-02-14T00:34:16;6.90;1.00
1391;DHT22;690;51.454;7.194;2024-02-14T00:36:43;6.90;1.00
1391;DHT22;690;51.454;7.194;2024-02-14T00:39:10;6.90;1.00
1391;DHT22;690;51.454;7.194;2024-02-14T00:41:37;6.90;1.00
1391;DHT22;690;51.454;7.194;2024-02-14T00:44:05;6.80;1.00
1391;DHT22;690;51.454;7.194;2024-02-14T00:46:32;6.80;1.00
1391;DHT22;690;51.454;7.194;2024-02-14T00:49:00;6.80;1.00
1391;DHT22;690;51.454;7.194;2024-02-14T00:51:27;6.70;1.00
1391;DHT22;690;51.454;7.194;2024-02-14T00:53:54;6.70;1.00
1391;DHT22;690;51.454;7.194;2024-02-14T00:56:21;6.70;1.00
1391;DHT22;690;51.454;7.194;2024-02-14T00:58:49;6.70;1.00
1391;DHT22;690;51.454;7.194;2024-02-14T01:01:16;6.70;1.00
1391;DHT22;690;51.454;7.194;2024-02-14T01:03:43;6.70;1.00
1391;DHT22;690;51.454;7.194;2024-02-14T01:06:11;6.70;1.00
1391;DHT22;690;51.454;7.194;2024-02-14T01:08:39;6.60;1.00
1391;DHT22;690;51.454;7.194;2024-02-14T01:11:07;6.60;1.00
1391;DHT22;690;51.454;7.194;2024-02-14T01:13:34;6.60;1.00
1391;DHT22;690;51.454;7.194;2024-02-14T01:16:02;6.60;1.00
1391;DHT22;690;51.454;7.194;2024-02-14T01:18:29;6.60;8.20
1391;DHT22;690;51.454;7.194;2024-02-14T01:20:57;6.50;12.50
1391;DHT22;690;51.454;7.194;2024-02-14T01:23:27;6.50;51.00
1391;DHT22;690;51.454;7.194;2024-02-14T01:25:54;6.50;63.30
1391;DHT22;690;51.454;7.194;2024-02-14T01:28:21;6.50;92.70
1391;DHT22;690;51.454;7.194;2024-02-14T01:30:48;6.50;99.90
1391;DHT22;690;51.454;7.194;2024-02-14T01:33:15;6.50;99.90
1391;DHT22;690;51.454;7.194;2024-02-14T01:35:42;6.50;99.90
1391;DHT22;690;51.454;7.194;2024-02-14T01:38:09;6.50;99.90
1391;DHT22;690;51.454;7.194;2024-02-14T01:40:42;6.50;99.90
1391;DHT22;690;51.454;7.194;2024-02-14T01:43:10;6.40;99.90
1391;DHT22;690;51.454;7.194;2024-02-14T01:45:37;6.50;99.90
1391;DHT22;690;51.454;7.194;2024-02-14T01:48:06;6.50;99.90
1391;DHT22;690;51.454;7.194;2024-02-14T01:50:34;6.50;99.90
1391;DHT22;690;51.454;7.194;2024-02-14T01:53:01;6.50;99.90
1391;DHT22;690;51.454;7.194;2024-02-14T01:55:29;6.50;99.90
1391;DHT22;690;51.454;7.194;2024-02-14T01:57:57;6.50;99.90
1391;DHT22;690;51.454;7.194;2024-02-14T02:00:25;6.40;99.90
1391;DHT22;690;51.454;7.194;2024-02-14T02:02:53;6.50;99.90
1391;DHT22;690;51.454;7.194;2024-02-14T02:05:23;6.50;99.90
1391;DHT22;690;51.454;7.194;2024-02-14T02:07:50;6.50;99.90
1391;DHT22;690;51.454;7.194;2024-02-14T02:10:17;6.50;99.90
1391;DHT22;690;51.454;7.194;2024-02-14T02:12:46;6.50;99.90
1391;DHT22;690;51.454;7.194;2024-02-14T02:15:15;6.50;99.90
1391;DHT22;690;51.454;7.194;2024-02-14T02:17:42;6.60;99.90
1391;DHT22;690;51.454;7.194;2024-02-14T02:20:11;6.60;99.90
1391;DHT22;690;51.454;7.194;2024-02-14T02:22:45;6.50;99.90
1391;DHT22;690;51.454;7.194;2024-02-14T02:25:12;6.60;99.90
1391;DHT22;690;51.454;7.194;2024-02-14T02:27:39;6.50;99.90
1391;DHT22;690;51.454;7.194;2024-02-14T02:30:07;6.60;99.90
1391;DHT22;690;51.454;7.194;2024-02-14T02:32:36;6.60;99.90
1391;DHT22;690;51.454;7.194;2024-02-14T02:35:03;6.60;99.90
1391;DHT22;690;51.454;7.194;2024-02-14T02:37:31;6.70;99.90
1391;DHT22;690;51.454;7.194;2024-02-14T02:39:59;6.70;99.90
1391;DHT22;690;51.454;7.194;2024-02-14T02:42:26;6.70;99.90
1391;DHT22;690;51.454;7.194;2024-02-14T02:44:54;6.70;99.90
1391;DHT22;690;51.454;7.194;2024-02-14T02:47:21;6.70;99.90
1391;DHT22;690;51.454;7.194;2024-02-14T02:49:48;6.70;99.90
1391;DHT22;690;51.454;7.194;2024-02-14T02:52:15;6.70;99.90
1391;DHT22;690;51.454;7.194;2024-02-14T02:54:42;6.70;99.90
1391;DHT22;690;51.454;7.194;2024-02-14T02:57:11;6.80;99.90
1391;DHT22;690;51.454;7.194;2024-02-14T02:59:38;6.80;99.90
1391;DHT22;690;51.454;7.194;2024-02-14T03:02:08;6.80;99.90
1391;DHT22;690;51.454;7.194;2024-02-14T03:04:37;6.80;99.90
1391;DHT22;690;51.454;7.194;2024-02-14T03:07:04;6.80;99.90
1391;DHT22;690;51.454;7.194;2024-02-14T03:09:33;6.90;99.90
1391;DHT22;690;51.454;7.194;2024-02-14T03:12:00;6.90;99.90
1391;DHT22;690;51.454;7.194;2024-02-14T03:14:30;7.00;99.90
1391;DHT22;690;51.454;7.194;2024-02-14T03:16:58;7.00;99.90
1391;DHT22;690;51.454;7.194;2024-02-14T03:19:27;7.00;99.90
1391;DHT22;690;51.454;7.194;2024-02-14T03:21:54;7.00;99.90
1391;DHT22;690;51.454;7.194;2024-02-14T03:24:21;7.00;99.90
1391;DHT22;690;51.454;7.194;2024-02-14T03:26:48;7.00;99.90
1391;DHT22;690;51.454;7.194;2024-02-14T03:29:17;7.00;99.90
1391;DHT22;690;51.454;7.194;2024-02-14T03:31:46;7.00;99.90
1391;DHT22;690;51.454;7.194;2024-02-14T03:34:13;7.00;99.90
1391;DHT22;690;51.454;7.194;2024-02-14T03:36:41;7.00;99.90
1391;DHT22;690;51.454;7.194;2024-02-14T03:39:08;7.00;99.90
1391;DHT22;690;51.454;7.194;2024-02-14T03:41:36;7.00;99.90
1391;DHT22;690;51.454;7.194;2024-02-14T03:44:04;7.00;99.90
1391;DHT22;690;51.454;7.194;2024-02-14T03:46:32;7.00;99.90
1391;DHT22;690;51.454;7.194;2024-02-14T03:49:02;7.00;99.90
1391;DHT22;690;51.454;7.194;2024-02-14T03:51:28;7.10;99.90
1391;DHT22;690;51.454;7.194;2024-02-14T03:53:55;7.00;99.90
1391;DHT22;690;51.454;7.194;2024-02-14T03:56:22;7.00;99.90
1391;DHT22;690;51.454;7.194;2024-02-14T03:58:49;7.00;99.90
1391;DHT22;690;51.454;7.194;2024-02-14T04:01:16;7.00;99.90
1391;DHT22;690;51.454;7.194;2024-02-14T04:03:46;7.00;99.90
1391;DHT22;690;51.454;7.194;2024-02-14T04:06:15;7.00;1.00
1391;DHT22;690;51.454;7.194;2024-02-14T04:08:43;6.90;1.00
1391;DHT22;690;51.454;7.194;2024-02-14T04:11:10;6.90;1.00
1391;DHT22;690;51.454;7.194;2024-02-14T04:13:39;6.90;1.00
1391;DHT22;690;51.454;7.194;2024-02-14T04:16:06;7.00;1.00
1391;DHT22;690;51.454;7.194;2024-02-14T04:18:33;7.00;1.00
1391;DHT22;690;51.454;7.194;2024-02-14T04:21:00;7.00;1.00
1391;DHT22;690;51.454;7.194;2024-02-14T04:23:28;7.00;1.00
1391;DHT22;690;51.454;7.194;2024-02-14T04:25:55;7.00;1.00
1391;DHT22;690;51.454;7.194;2024-02-14T04:28:23;7.00;1.00
1391;DHT22;690;51.454;7.194;2024-02-14T04:30:50;7.00;1.00
1391;DHT22;690;51.454;7.194;2024-02-14T04:33:19;7.00;58.10
1391;DHT22;690;51.454;7.194;2024-02-14T04:35:47;7.00;81.20
1391;DHT22;690;51.454;7.194;2024-02-14T04:38:14;7.10;45.30
1391;DHT22;690;51.454;7.194;2024-02-14T04:40:42;7.10;91.00
1391;DHT22;690;51.454;7.194;2024-02-14T04:43:09;7.20;99.90
1391;DHT22;690;51.454;7.194;2024-02-14T04:45:36;7.20;99.90
1391;DHT22;690;51.454;7.194;2024-02-14T04:48:04;7.20;99.90
1391;DHT22;690;51.454;7.194;2024-02-14T04:50:31;7.20;99.90
1391;DHT22;690;51.454;7.194;2024-02-14T04:52:58;7.20;99.90
1391;DHT22;690;51.454;7.194;2024-02-14T04:55:25;7.30;99.90
1391;DHT22;690;51.454;7.194;2024-02-14T04:57:53;7.30;99.90
1391;DHT22;690;51.454;7.194;2024-02-14T05:00:20;7.30;99.90
1391;DHT22;690;51.454;7.194;2024-02-14T05:02:47;7.30;99.90
1391;DHT22;690;51.454;7.194;2024-02-14T05:05:15;7.30;99.90
1391;DHT22;690;51.454;7.194;2024-02-14T05:07:42;7.30;99.90
1391;DHT22;690;51.454;7.194;2024-02-14T05:10:09;7.30;99.90
1391;DHT22;690;51.454;7.194;2024-02-14T05:12:39;7.30;99.90
1391;DHT22;690;51.454;7.194;2024-02-14T05:15:08;7.30;99.90
1391;DHT22;690;51.454;7.194;2024-02-14T05:17:37;7.40;99.90
1391;DHT22;690;51.454;7.194;2024-02-14T05:20:05;7.40;99.90
1391;DHT22;690;51.454;7.194;2024-02-14T05:22:35;7.40;99.90
1391;DHT22;690;51.454;7.194;2024-02-14T05:25:03;7.40;99.90
1391;DHT22;690;51.454;7.194;2024-02-14T05:27:30;7.50;99.90
1391;DHT22;690;51.454;7.194;2024-02-14T05:29:57;7.50;99.90
1391;DHT22;690;51.454;7.194;2024-02-14T05:32:25;7.50;99.90
1391;DHT22;690;51.454;7.194;2024-02-14T05:34:52;7.50;99.90
1391;DHT22;690;51.454;7.194;2024-02-14T05:37:20;7.50;99.90
1391;DHT22;690;51.454;7.194;2024-02-14T05:39:47;7.50;99.90
1391;DHT22;690;51.454;7.194;2024-02-14T05:42:13;7.50;1.00
1391;DHT22;690;51.454;7.194;2024-02-14T05:44:41;7.50;1.00
1391;DHT22;690;51.454;7.194;2024-02-14T05:47:08;7.50;1.00
1391;DHT22;690;51.454;7.194;2024-02-14T05:49:39;7.60;1.00
1391;DHT22;690;51.454;7.194;2024-02-14T05:52:06;7.60;1.00
1391;DHT22;690;51.454;7.194;2024-02-14T05:54:33;7.60;1.00
1391;DHT22;690;51.454;7.194;2024-02-14T05:57:00;7.60;1.00
1391;DHT22;690;51.454;7.194;2024-02-14T05:59:27;7.60;1.00
1391;DHT22;690;51.454;7.194;2024-02-14T06:01:54;7.60;1.00
1391;DHT22;690;51.454;7.194;2024-02-14T06:04:21;7.60;1.00
1391;DHT22;690;51.454;7.194;2024-02-14T06:06:49;7.60;1.00
1391;DHT22;690;51.454;7.194;2024-02-14T06:09:16;7.60;1.00
1391;DHT22;690;51.454;7.194;2024-02-14T06:11:43;7.60;1.00
1391;DHT22;690;51.454;7.194;2024-02-14T06:14:10;7.60;1.00
1391;DHT22;690;51.454;7.194;2024-02-14T06:16:38;7.60;1.00
1391;DHT22;690;51.454;7.194;2024-02-14T06:19:04;7.60;1.00
1391;DHT22;690;51.454;7.194;2024-02-14T06:21:31;7.60;43.20
1391;DHT22;690;51.454;7.194;2024-02-14T06:24:01;7.60;41.60
1391;DHT22;690;51.454;7.194;2024-02-14T06:26:30;7.60;99.90
1391;DHT22;690;51.454;7.194;2024-02-14T06:28:56;7.60;99.90
1391;DHT22;690;51.454;7.194;2024-02-14T06:31:23;7.60;99.90
1391;DHT22;690;51.454;7.194;2024-02-14T06:33:50;7.70;99.90
1391;DHT22;690;51.454;7.194;2024-02-14T06:36:17;7.70;99.90
1391;DHT22;690;51.454;7.194;2024-02-14T06:38:44;7.70;99.90
1391;DHT22;690;51.454;7.194;2024-02-14T06:41:13;7.70;99.90
1391;DHT22;690;51.454;7.194;2024-02-14T06:43:40;7.80;99.90
1391;DHT22;690;51.454;7.194;2024-02-14T06:46:07;7.80;99.90
1391;DHT22;690;51.454;7.194;2024-02-14T06:48:34;7.80;99.90
1391;DHT22;690;51.454;7.194;2024-02-14T06:51:00;7.80;99.90
1391;DHT22;690;51.454;7.194;2024-02-14T06:53:27;7.90;99.90
1391;DHT22;690;51.454;7.194;2024-02-14T06:55:54;7.90;99.90
1391;DHT22;690;51.454;7.194;2024-02-14T06:58:22;7.90;99.90
1391;DHT22;690;51.454;7.194;2024-02-14T07:00:49;7.90;99.90
1391;DHT22;690;51.454;7.194;2024-02-14T07:03:16;7.80;99.90
1391;DHT22;690;51.454;7.194;2024-02-14T07:05:43;7.80;99.90
1391;DHT22;690;51.454;7.194;2024-02-14T07:08:10;7.90;99.90
1391;DHT22;690;51.454;7.194;2024-02-14T07:10:37;7.90;1.00
1391;DHT22;690;51.454;7.194;2024-02-14T07:13:05;7.80;1.00
1391;DHT22;690;51.454;7.194;2024-02-14T07:15:33;7.90;1.00
1391;DHT22;690;51.454;7.194;2024-02-14T07:18:00;7.90;1.00
1391;DHT22;690;51.454;7.194;2024-02-14T07:20:26;7.90;1.00
1391;DHT22;690;51.454;7.194;2024-02-14T07:22:53;7.90;1.00
1391;DHT22;690;51.454;7.194;2024-02-14T07:25:22;7.90;1.00
1391;DHT22;690;51.454;7.194;2024-02-14T07:27:49;7.90;1.00
1391;DHT22;690;51.454;7.194;2024-02-14T07:30:16;7.90;1.00
1391;DHT22;690;51.454;7.194;2024-02-14T07:32:44;8.00;62.50
1391;DHT22;690;51.454;7.194;2024-02-14T07:35:11;8.00;1.00
1391;DHT22;690;51.454;7.194;2024-02-14T07:37:39;8.00;1.00
1391;DHT22;690;51.454;7.194;2024-02-14T07:40:07;8.10;1.00
1391;DHT22;690;51.454;7.194;2024-02-14T07:42:34;8.10;1.00
1391;DHT22;690;51.454;7.194;2024-02-14T07:45:01;8.10;76.60
1391;DHT22;690;51.454;7.194;2024-02-14T07:47:29;8.10;99.90
1391;DHT22;690;51.454;7.194;2024-02-14T07:49:57;8.10;99.90
1391;DHT22;690;51.454;7.194;2024-02-14T07:52:24;8.10;99.90
1391;DHT22;690;51.454;7.194;2024-02-14T07:54:52;8.20;99.90
1391;DHT22;690;51.454;7.194;2024-02-14T07:57:20;8.20;66.00
1391;DHT22;690;51.454;7.194;2024-02-14T07:59:46;8.20;35.60
1391;DHT22;690;51.454;7.194;2024-02-14T08:02:13;8.20;75.40
1391;DHT22;690;51.454;7.194;2024-02-14T08:04:40;8.20;99.90
1391;DHT22;690;51.454;7.194;2024-02-14T08:07:09;8.20;99.90
1391;DHT22;690;51.454;7.194;2024-02-14T08:09:36;8.20;99.90
1391;DHT22;690;51.454;7.194;2024-02-14T08:12:04;8.20;99.90
1391;DHT22;690;51.454;7.194;2024-02-14T08:14:32;8.20;99.90
1391;DHT22;690;51.454;7.194;2024-02-14T08:16:59;8.30;99.90
1391;DHT22;690;51.454;7.194;2024-02-14T08:19:25;8.30;99.90
1391;DHT22;690;51.454;7.194;2024-02-14T08:21:52;8.20;99.90
1391;DHT22;690;51.454;7.194;2024-02-14T08:26:52;8.30;1.00
1391;DHT22;690;51.454;7.194;2024-02-14T08:29:19;8.40;1.00
1391;DHT22;690;51.454;7.194;2024-02-14T08:31:46;8.40;99.90
1391;DHT22;690;51.454;7.194;2024-02-14T08:34:13;8.50;99.90
1391;DHT22;690;51.454;7.194;2024-02-14T08:36:40;8.50;99.90
1391;DHT22;690;51.454;7.194;2024-02-14T08:39:07;8.50;1.00
1391;DHT22;690;51.454;7.194;2024-02-14T08:41:36;8.60;1.00
1391;DHT22;690;51.454;7.194;2024-02-14T08:44:04;8.60;99.90
1391;DHT22;690;51.454;7.194;2024-02-14T08:46:31;8.60;99.90
1391;DHT22;690;51.454;7.194;2024-02-14T08:49:00;8.70;99.90
1391;DHT22;690;51.454;7.194;2024-02-14T08:51:28;8.70;99.90
1391;DHT22;690;51.454;7.194;2024-02-14T08:53:55;8.80;89.60
1391;DHT22;690;51.454;7.194;2024-02-14T08:56:25;8.80;4.70
1391;DHT22;690;51.454;7.194;2024-02-14T08:58:53;8.80;1.00
1391;DHT22;690;51.454;7.194;2024-02-14T09:01:20;8.80;1.00
1391;DHT22;690;51.454;7.194;2024-02-14T09:03:47;8.80;1.00
1391;DHT22;690;51.454;7.194;2024-02-14T09:06:14;8.90;1.00
1391;DHT22;690;51.454;7.194;2024-02-14T09:08:41;8.90;1.00
1391;DHT22;690;51.454;7.194;2024-02-14T09:11:10;8.90;1.00
1391;DHT22;690;51.454;7.194;2024-02-14T09:13:37;8.90;99.90
1391;DHT22;690;51.454;7.194;2024-02-14T09:16:08;8.90;99.90
1391;DHT22;690;51.454;7.194;2024-02-14T09:18:34;8.90;99.90
1391;DHT22;690;51.454;7.194;2024-02-14T09:21:01;8.90;99.90
1391;DHT22;690;51.454;7.194;2024-02-14T09:23:29;8.90;99.90
1391;DHT22;690;51.454;7.194;2024-02-14T09:25:57;9.00;99.90
1391;DHT22;690;51.454;7.194;2024-02-14T09:28:24;9.00;99.90
1391;DHT22;690;51.454;7.194;2024-02-14T09:30:51;9.00;62.40
1391;DHT22;690;51.454;7.194;2024-02-14T09:33:20;9.00;99.90
1391;DHT22;690;51.454;7.194;2024-02-14T09:35:47;9.00;99.90
1391;DHT22;690;51.454;7.194;2024-02-14T09:38:14;9.00;43.90
1391;DHT22;690;51.454;7.194;2024-02-14T09:40:41;9.10;21.70
1391;DHT22;690;51.454;7.194;2024-02-14T09:43:12;9.10;7.00
1391;DHT22;690;51.454;7.194;2024-02-14T09:45:44;9.10;1.00
1391;DHT22;690;51.454;7.194;2024-02-14T09:48:12;9.10;1.00
1391;DHT22;690;51.454;7.194;2024-02-14T09:50:42;9.10;1.00
1391;DHT22;690;51.454;7.194;2024-02-14T09:53:10;9.20;1.00
1391;DHT22;690;51.454;7.194;2024-02-14T09:55:37;9.20;1.00
1391;DHT22;690;51.454;7.194;2024-02-14T09:58:06;9.20;1.00
1391;DHT22;690;51.454;7.194;2024-02-14T10:00:34;9.20;1.00
1391;DHT22;690;51.454;7.194;2024-02-14T10:03:02;9.20;1.00
1391;DHT22;690;51.454;7.194;2024-02-14T10:05:29;9.20;1.00
1391;DHT22;690;51.454;7.194;2024-02-14T10:07:57;9.20;1.00
1391;DHT22;690;51.454;7.194;2024-02-14T10:10:25;9.20;1.00
1391;DHT22;690;51.454;7.194;2024-02-14T10:12:54;9.20;1.00
1391;DHT22;690;51.454;7.194;2024-02-14T10:15:20;9.20;1.00
1391;DHT22;690;51.454;7.194;2024-02-14T10:17:47;9.20;1.00
1391;DHT22;690;51.454;7.194;2024-02-14T10:20:17;9.20;1.00
1391;DHT22;690;51.454;7.194;2024-02-14T10:22:45;9.20;1.00
1391;DHT22;690;51.454;7.194;2024-02-14T10:25:13;9.30;1.00
1391;DHT22;690;51.454;7.194;2024-02-14T10:27:40;9.30;1.00
1391;DHT22;690;51.454;7.194;2024-02-14T10:30:08;9.40;3.00
1391;DHT22;690;51.454;7.194;2024-02-14T10:32:36;9.40;59.40
1391;DHT22;690;51.454;7.194;2024-02-14T10:35:04;9.50;1.00
1391;DHT22;690;51.454;7.194;2024-02-14T10:37:34;9.60;1.00
1391;DHT22;690;51.454;7.194;2024-02-14T10:40:02;9.50;1.00
1391;DHT22;690;51.454;7.194;2024-02-14T10:42:31;9.50;1.00
1391;DHT22;690;51.454;7.194;2024-02-14T10:44:58;9.60;1.00
1391;DHT22;690;51.454;7.194;2024-02-14T10:47:30;9.70;1.00
1391;DHT22;690;51.454;7.194;2024-02-14T10:50:00;9.90;17.90
1391;DHT22;690;51.454;7.194;2024-02-14T10:52:31;10.00;1.00
1391;DHT22;690;51.454;7.194;2024-02-14T10:55:01;10.10;1.00
1391;DHT22;690;51.454;7.194;2024-02-14T10:57:28;10.20;1.00
1391;DHT22;690;51.454;7.194;2024-02-14T10:59:59;10.20;99.90
1391;DHT22;690;51.454;7.194;2024-02-14T11:02:27;10.10;99.90
1391;DHT22;690;51.454;7.194;2024-02-14T11:04:56;10.10;99.90
1391;DHT22;690;51.454;7.194;2024-02-14T11:07:23;10.00;99.90
1391;DHT22;690;51.454;7.194;2024-02-14T11:10:00;9.90;99.90
1391;DHT22;690;51.454;7.194;2024-02-14T11:12:33;9.90;99.90
1391;DHT22;690;51.454;7.194;2024-02-14T11:15:09;9.80;99.90
1391;DHT22;690;51.454;7.194;2024-02-14T11:17:38;9.80;99.90
1391;DHT22;690;51.454;7.194;2024-02-14T11:20:16;9.80;99.90
1391;DHT22;690;51.454;7.194;2024-02-14T11:22:57;9.80;99.90
1391;DHT22;690;51.454;7.194;2024-02-14T11:25:29;9.70;99.90
1391;DHT22;690;51.454;7.194;2024-02-14T11:27:57;9.60;99.90
1391;DHT22;690;51.454;7.194;2024-02-14T11:30:34;9.60;1.00
1391;DHT22;690;51.454;7.194;2024-02-14T11:33:15;9.50;1.00
1391;DHT22;690;51.454;7.194;2024-02-14T11:35:42;9.60;1.00
1391;DHT22;690;51.454;7.194;2024-02-14T11:38:09;9.60;1.00
1391;DHT22;690;51.454;7.194;2024-02-14T11:40:36;9.60;1.00
1391;DHT22;690;51.454;7.194;2024-02-14T11:43:04;9.70;1.00
1391;DHT22;690;51.454;7.194;2024-02-14T11:45:33;9.70;1.00
1391;DHT22;690;51.454;7.194;2024-02-14T11:48:00;9.80;1.00
1391;DHT22;690;51.454;7.194;2024-02-14T11:50:27;9.90;1.00
1391;DHT22;690;51.454;7.194;2024-02-14T11:52:55;9.90;1.00
1391;DHT22;690;51.454;7.194;2024-02-14T11:55:27;9.90;1.00
1391;DHT22;690;51.454;7.194;2024-02-14T11:57:55;10.00;1.00
1391;DHT22;690;51.454;7.194;2024-02-14T12:00:22;9.90;1.00
1391;DHT22;690;51.454;7.194;2024-02-14T12:02:51;10.00;1.00
1391;DHT22;690;51.454;7.194;2024-02-14T12:05:20;10.20;1.00
1391;DHT22;690;51.454;7.194;2024-02-14T12:07:47;10.20;1.00
1391;DHT22;690;51.454;7.194;2024-02-14T12:10:14;10.30;1.00
1391;DHT22;690;51.454;7.194;2024-02-14T12:12:45;10.50;1.00
1391;DHT22;690;51.454;7.194;2024-02-14T12:15:12;10.60;1.00
1391;DHT22;690;51.454;7.194;2024-02-14T12:17:41;10.70;99.90
1391;DHT22;690;51.454;7.194;2024-02-14T12:20:12;10.70;99.90
1391;DHT22;690;51.454;7.194;2024-02-14T12:22:39;10.80;99.90
1391;DHT22;690;51.454;7.194;2024-02-14T12:25:07;10.70;99.90
1391;DHT22;690;51.454;7.194;2024-02-14T12:27:37;10.70;99.90
1391;DHT22;690;51.454;7.194;2024-02-14T12:30:05;10.70;96.30
1391;DHT22;690;51.454;7.194;2024-02-14T12:32:32;10.60;30.30
1391;DHT22;690;51.454;7.194;2024-02-14T12:34:59;10.60;58.80
1391;DHT22;690;51.454;7.194;2024-02-14T12:37:28;10.50;12.00
1391;DHT22;690;51.454;7.194;2024-02-14T12:39:55;10.50;7.50
1391;DHT22;690;51.454;7.194;2024-02-14T12:42:22;10.50;14.10
1391;DHT22;690;51.454;7.194;2024-02-14T12:44:51;10.40;51.00
1391;DHT22;690;51.454;7.194;2024-02-14T12:47:19;10.40;79.60
1391;DHT22;690;51.454;7.194;2024-02-14T12:49:48;10.40;99.90
1391;DHT22;690;51.454;7.194;2024-02-14T12:52:15;10.40;99.90
1391;DHT22;690;51.454;7.194;2024-02-14T12:54:44;10.40;99.90
1391;DHT22;690;51.454;7.194;2024-02-14T12:57:11;10.50;99.90
1391;DHT22;690;51.454;7.194;2024-02-14T12:59:38;10.50;99.90
1391;DHT22;690;51.454;7.194;2024-02-14T13:02:05;10.50;99.90
1391;DHT22;690;51.454;7.194;2024-02-14T13:04:33;10.50;99.90
1391;DHT22;690;51.454;7.194;2024-02-14T13:07:00;10.50;99.90
1391;DHT22;690;51.454;7.194;2024-02-14T13:09:27;10.40;99.90
1391;DHT22;690;51.454;7.194;2024-02-14T13:11:56;10.40;99.90
1391;DHT22;690;51.454;7.194;2024-02-14T13:14:23;10.40;99.90
1391;DHT22;690;51.454;7.194;2024-02-14T13:16:50;10.40;99.90
1391;DHT22;690;51.454;7.194;2024-02-14T13:19:17;10.50;99.90
1391;DHT22;690;51.454;7.194;2024-02-14T13:21:44;10.50;99.90
1391;DHT22;690;51.454;7.194;2024-02-14T13:24:12;10.60;99.90
1391;DHT22;690;51.454;7.194;2024-02-14T13:26:39;10.60;99.90
1391;DHT22;690;51.454;7.194;2024-02-14T13:29:08;10.50;99.90
1391;DHT22;690;51.454;7.194;2024-02-14T13:31:35;10.50;99.90
1391;DHT22;690;51.454;7.194;2024-02-14T13:34:02;10.50;99.90
1391;DHT22;690;51.454;7.194;2024-02-14T13:36:30;10.40;99.90
1391;DHT22;690;51.454;7.194;2024-02-14T13:38:57;10.40;1.00
1391;DHT22;690;51.454;7.194;2024-02-14T13:41:25;10.40;1.00
1391;DHT22;690;51.454;7.194;2024-02-14T13:43:52;10.30;1.00
1391;DHT22;690;51.454;7.194;2024-02-14T13:46:20;10.30;1.00
1391;DHT22;690;51.454;7.194;2024-02-14T13:48:48;10.30;1.00
1391;DHT22;690;51.454;7.194;2024-02-14T13:51:15;10.30;1.00
1391;DHT22;690;51.454;7.194;2024-02-14T13:53:42;10.30;1.00
1391;DHT22;690;51.454;7.194;2024-02-14T13:56:09;10.30;1.00
1391;DHT22;690;51.454;7.194;2024-02-14T13:58:36;10.30;1.00
1391;DHT22;690;51.454;7.194;2024-02-14T14:01:04;10.30;1.00
1391;DHT22;690;51.454;7.194;2024-02-14T14:03:33;10.30;1.00
1391;DHT22;690;51.454;7.194;2024-02-14T14:06:02;10.30;1.00
1391;DHT22;690;51.454;7.194;2024-02-14T14:08:30;10.30;1.00
1391;DHT22;690;51.454;7.194;2024-02-14T14:10:57;10.20;17.90
1391;DHT22;690;51.454;7.194;2024-02-14T14:13:24;10.20;99.90
1391;DHT22;690;51.454;7.194;2024-02-14T14:15:54;10.20;99.90
1391;DHT22;690;51.454;7.194;2024-02-14T14:18:22;10.30;99.90
1391;DHT22;690;51.454;7.194;2024-02-14T14:20:50;10.30;99.90
1391;DHT22;690;51.454;7.194;2024-02-14T14:23:18;10.30;99.90
1391;DHT22;690;51.454;7.194;2024-02-14T14:25:45;10.30;99.90
1391;DHT22;690;51.454;7.194;2024-02-14T14:28:12;10.30;99.90
1391;DHT22;690;51.454;7.194;2024-02-14T14:30:40;10.30;99.90
1391;DHT22;690;51.454;7.194;2024-02-14T14:33:07;10.40;99.90
1391;DHT22;690;51.454;7.194;2024-02-14T14:35:34;10.40;99.90
1391;DHT22;690;51.454;7.194;2024-02-14T14:38:02;10.50;99.90
1391;DHT22;690;51.454;7.194;2024-02-14T14:40:29;10.40;99.90
1391;DHT22;690;51.454;7.194;2024-02-14T14:42:57;10.50;99.90
1391;DHT22;690;51.454;7.194;2024-02-14T14:45:23;10.50;99.90
1391;DHT22;690;51.454;7.194;2024-02-14T14:47:50;10.50;99.90
1391;DHT22;690;51.454;7.194;2024-02-14T14:50:19;10.50;99.90
1391;DHT22;690;51.454;7.194;2024-02-14T14:52:46;10.50;99.90
1391;DHT22;690;51.454;7.194;2024-02-14T14:55:15;10.50;99.90
1391;DHT22;690;51.454;7.194;2024-02-14T14:57:42;10.50;54.00
1391;DHT22;690;51.454;7.194;2024-02-14T15:00:10;10.50;38.80
1391;DHT22;690;51.454;7.194;2024-02-14T15:02:39;10.40;99.90
1391;DHT22;690;51.454;7.194;2024-02-14T15:07:35;10.30;99.90
1391;DHT22;690;51.454;7.194;2024-02-14T15:10:02;10.30;99.90
1391;DHT22;690;51.454;7.194;2024-02-14T15:12:31;10.20;99.90
1391;DHT22;690;51.454;7.194;2024-02-14T15:15:00;10.20;99.90
1391;DHT22;690;51.454;7.194;2024-02-14T15:17:28;10.20;99.90
1391;DHT22;690;51.454;7.194;2024-02-14T15:19:55;10.20;99.90
1391;DHT22;690;51.454;7.194;2024-02-14T15:22:22;10.10;99.90
1391;DHT22;690;51.454;7.194;2024-02-14T15:24:50;10.10;99.90
1391;DHT22;690;51.454;7.194;2024-02-14T15:27:18;10.10;1.00
1391;DHT22;690;51.454;7.194;2024-02-14T15:29:50;10.10;1.00
1391;DHT22;690;51.454;7.194;2024-02-14T15:32:35;10.00;1.00
1391;DHT22;690;51.454;7.194;2024-02-14T15:35:19;10.00;1.00
1391;DHT22;690;51.454;7.194;2024-02-14T15:37:46;10.00;1.00
1391;DHT22;690;51.454;7.194;2024-02-14T15:40:15;10.00;16.90
1391;DHT22;690;51.454;7.194;2024-02-14T15:42:42;9.90;7.10
1391;DHT22;690;51.454;7.194;2024-02-14T15:45:10;10.00;99.90
1391;DHT22;690;51.454;7.194;2024-02-14T15:47:42;9.90;99.90
1391;DHT22;690;51.454;7.194;2024-02-14T15:50:09;9.90;99.90
1391;DHT22;690;51.454;7.194;2024-02-14T15:52:37;9.90;99.90
1391;DHT22;690;51.454;7.194;2024-02-14T15:55:04;9.90;1.00
1391;DHT22;690;51.454;7.194;2024-02-14T15:57:33;9.80;1.00
1391;DHT22;690;51.454;7.194;2024-02-14T16:00:01;9.80;1.00
1391;DHT22;690;51.454;7.194;2024-02-14T16:02:30;9.90;1.00
1391;DHT22;690;51.454;7.194;2024-02-14T16:04:57;9.80;1.00
1391;DHT22;690;51.454;7.194;2024-02-14T16:07:24;9.70;24.20
1391;DHT22;690;51.454;7.194;2024-02-14T16:09:51;9.70;99.90
1391;DHT22;690;51.454;7.194;2024-02-14T16:12:18;9.70;99.90
1391;DHT22;690;51.454;7.194;2024-02-14T16:14:45;9.70;99.90
1391;DHT22;690;51.454;7.194;2024-02-14T16:17:12;9.80;99.90
1391;DHT22;690;51.454;7.194;2024-02-14T16:19:41;9.70;1.00
1391;DHT22;690;51.454;7.194;2024-02-14T16:22:08;9.80;1.00
1391;DHT22;690;51.454;7.194;2024-02-14T16:24:35;9.80;1.00
1391;DHT22;690;51.454;7.194;2024-02-14T16:27:02;9.80;1.00
1391;DHT22;690;51.454;7.194;2024-02-14T16:29:29;9.80;1.00
1391;DHT22;690;51.454;7.194;2024-02-14T16:31:56;9.80;1.00
1391;DHT22;690;51.454;7.194;2024-02-14T16:34:24;9.80;1.00
1391;DHT22;690;51.454;7.194;2024-02-14T16:36:52;9.80;1.00
1391;DHT22;690;51.454;7.194;2024-02-14T16:39:20;9.80;1.00
1391;DHT22;690;51.454;7.194;2024-02-14T16:41:47;9.80;15.80
1391;DHT22;690;51.454;7.194;2024-02-14T16:44:14;9.80;31.60
1391;DHT22;690;51.454;7.194;2024-02-14T16:46:41;9.80;92.90